TOM888 EGNM-ENHD
Flight info
| Callsign | TOM888 |
|---|---|
| Flight time | 1h 13m |
| Altitude | 29000 |
| Route | GIVEM DCT GIBSU DCT UNBUD |
| Aircraft | B738/M-SDE2E3FGHIRWXY/LB1 |
Departure
| Time | 2026-04-26 09:01 |
|---|---|
| Airport | Leeds Bradford Airport (EGNM) |
Arrival
| Time | 2026-04-26 10:14 |
|---|---|
| Airport | Haugesund Airport, Karmøy (ENHD) |
| Time | Latitude | Longitude | Altitude | Speed | Heading |
|---|---|---|---|---|---|
| 2026-04-26 08:31 | 53.86876 | -1.65548 | 663 ft | 0 kts | 1° |
| 2026-04-26 08:54 | 53.86865 | -1.65549 | 663 ft | 5 kts | 1° |
| 2026-04-26 08:54 | 53.86844 | -1.65550 | 660 ft | 4 kts | 359° |
| 2026-04-26 08:54 | 53.86820 | -1.65542 | 660 ft | 4 kts | 310° |
| 2026-04-26 08:54 | 53.86814 | -1.65508 | 661 ft | 4 kts | 271° |
| 2026-04-26 08:55 | 53.86814 | -1.65486 | 662 ft | 0 kts | 271° |
| 2026-04-26 08:57 | 53.86814 | -1.65511 | 660 ft | 6 kts | 271° |
| 2026-04-26 08:58 | 53.86816 | -1.65644 | 663 ft | 16 kts | 271° |
| 2026-04-26 08:58 | 53.86812 | -1.65880 | 664 ft | 23 kts | 269° |
| 2026-04-26 08:58 | 53.86841 | -1.66127 | 666 ft | 20 kts | 315° |
| 2026-04-26 08:58 | 53.86924 | -1.66255 | 665 ft | 14 kts | 317° |
| 2026-04-26 08:59 | 53.86974 | -1.66372 | 670 ft | 11 kts | 300° |
| 2026-04-26 08:59 | 53.86994 | -1.66494 | 672 ft | 11 kts | 257° |
| 2026-04-26 08:59 | 53.86969 | -1.66631 | 668 ft | 15 kts | 301° |
| 2026-04-26 08:59 | 53.87085 | -1.66816 | 679 ft | 33 kts | 317° |
| 2026-04-26 09:00 | 53.87253 | -1.66997 | 687 ft | 25 kts | 2° |
| 2026-04-26 09:00 | 53.87395 | -1.67036 | 685 ft | 16 kts | 299° |
| 2026-04-26 09:00 | 53.87359 | -1.67182 | 683 ft | 14 kts | 221° |
| 2026-04-26 09:00 | 53.87309 | -1.67160 | 681 ft | 5 kts | 138° |
| 2026-04-26 09:01 | 53.87133 | -1.66891 | 682 ft | 74 kts | 137° |
| 2026-04-26 09:01 | 53.86563 | -1.66014 | 667 ft | 144 kts | 138° |
| 2026-04-26 09:01 | 53.85742 | -1.64742 | 1185 ft | 160 kts | 139° |
| 2026-04-26 09:01 | 53.84923 | -1.63500 | 2263 ft | 158 kts | 140° |
| 2026-04-26 09:02 | 53.84063 | -1.62199 | 2888 ft | 179 kts | 142° |
| 2026-04-26 09:02 | 53.83055 | -1.60641 | 3162 ft | 211 kts | 138° |
| 2026-04-26 09:02 | 53.81961 | -1.58752 | 3449 ft | 236 kts | 137° |
| 2026-04-26 09:02 | 53.80757 | -1.56646 | 3819 ft | 257 kts | 136° |
| 2026-04-26 09:03 | 53.79487 | -1.54430 | 4611 ft | 266 kts | 136° |
| 2026-04-26 09:03 | 53.78189 | -1.52174 | 5524 ft | 270 kts | 136° |
| 2026-04-26 09:03 | 53.76821 | -1.50019 | 6364 ft | 274 kts | 146° |
| 2026-04-26 09:03 | 53.75213 | -1.48249 | 7017 ft | 277 kts | 148° |
| 2026-04-26 09:04 | 53.73594 | -1.46468 | 7322 ft | 279 kts | 147° |
| 2026-04-26 09:04 | 53.71975 | -1.44647 | 7336 ft | 280 kts | 147° |
| 2026-04-26 09:04 | 53.70364 | -1.42812 | 7342 ft | 279 kts | 147° |
| 2026-04-26 09:04 | 53.68765 | -1.40975 | 7350 ft | 278 kts | 147° |
| 2026-04-26 09:05 | 53.67163 | -1.39132 | 7401 ft | 281 kts | 147° |
| 2026-04-26 09:05 | 53.65532 | -1.37258 | 8001 ft | 285 kts | 147° |
| 2026-04-26 09:05 | 53.63923 | -1.35409 | 9013 ft | 282 kts | 147° |
| 2026-04-26 09:05 | 53.62293 | -1.33537 | 9919 ft | 286 kts | 147° |
| 2026-04-26 09:06 | 53.60638 | -1.31638 | 10691 ft | 292 kts | 147° |
| 2026-04-26 09:06 | 53.58893 | -1.29641 | 10953 ft | 317 kts | 147° |
| 2026-04-26 09:06 | 53.56998 | -1.27476 | 11146 ft | 341 kts | 148° |
| 2026-04-26 09:06 | 53.54977 | -1.25165 | 11479 ft | 359 kts | 147° |
| 2026-04-26 09:07 | 53.52889 | -1.22774 | 12140 ft | 366 kts | 147° |
| 2026-04-26 09:07 | 53.50778 | -1.20359 | 12929 ft | 369 kts | 147° |
| 2026-04-26 09:07 | 53.48673 | -1.17959 | 13693 ft | 372 kts | 148° |
| 2026-04-26 09:07 | 53.46535 | -1.15460 | 14402 ft | 378 kts | 143° |
| 2026-04-26 09:08 | 53.44653 | -1.12340 | 15040 ft | 385 kts | 130° |
| 2026-04-26 09:08 | 53.43141 | -1.08605 | 15703 ft | 390 kts | 119° |
| 2026-04-26 09:08 | 53.42355 | -1.04227 | 16300 ft | 399 kts | 95° |
| 2026-04-26 09:08 | 53.42516 | -0.99563 | 16954 ft | 404 kts | 78° |
| 2026-04-26 09:09 | 53.43416 | -0.95086 | 17554 ft | 409 kts | 64° |
| 2026-04-26 09:09 | 53.44888 | -0.90991 | 18125 ft | 413 kts | 48° |
| 2026-04-26 09:09 | 53.47086 | -0.87932 | 18689 ft | 413 kts | 25° |
| 2026-04-26 09:09 | 53.49717 | -0.86195 | 19281 ft | 412 kts | 16° |
| 2026-04-26 09:10 | 53.52452 | -0.84723 | 19851 ft | 414 kts | 14° |
| 2026-04-26 09:10 | 53.55218 | -0.83300 | 20372 ft | 418 kts | 14° |
| 2026-04-26 09:10 | 53.58006 | -0.81872 | 20910 ft | 422 kts | 14° |
| 2026-04-26 09:10 | 53.60820 | -0.80414 | 21437 ft | 425 kts | 14° |
| 2026-04-26 09:11 | 53.63649 | -0.78926 | 21984 ft | 428 kts | 14° |
| 2026-04-26 09:11 | 53.66497 | -0.77408 | 22501 ft | 431 kts | 14° |
| 2026-04-26 09:11 | 53.69363 | -0.75865 | 23004 ft | 434 kts | 14° |
| 2026-04-26 09:11 | 53.72249 | -0.74301 | 23503 ft | 437 kts | 14° |
| 2026-04-26 09:12 | 53.75156 | -0.72721 | 23991 ft | 440 kts | 14° |
| 2026-04-26 09:12 | 53.78080 | -0.71127 | 24370 ft | 444 kts | 14° |
| 2026-04-26 09:12 | 53.80987 | -0.69539 | 24785 ft | 446 kts | 14° |
| 2026-04-26 09:12 | 53.83944 | -0.67922 | 25210 ft | 448 kts | 14° |
| 2026-04-26 09:13 | 53.86914 | -0.66295 | 25618 ft | 450 kts | 14° |
| 2026-04-26 09:13 | 53.89898 | -0.64659 | 26006 ft | 452 kts | 14° |
| 2026-04-26 09:13 | 53.92895 | -0.63011 | 26385 ft | 454 kts | 14° |
| 2026-04-26 09:13 | 53.95825 | -0.60918 | 26789 ft | 461 kts | 25° |
| 2026-04-26 09:14 | 53.98529 | -0.57940 | 27225 ft | 466 kts | 33° |
| 2026-04-26 09:14 | 54.01124 | -0.54620 | 27611 ft | 468 kts | 33° |
| 2026-04-26 09:14 | 54.03725 | -0.51247 | 27917 ft | 472 kts | 33° |
| 2026-04-26 09:14 | 54.06343 | -0.47849 | 28246 ft | 474 kts | 33° |
| 2026-04-26 09:15 | 54.08969 | -0.44453 | 28698 ft | 473 kts | 33° |
| 2026-04-26 09:15 | 54.11592 | -0.41077 | 29221 ft | 471 kts | 33° |
| 2026-04-26 09:15 | 54.14217 | -0.37710 | 29350 ft | 475 kts | 33° |
| 2026-04-26 09:16 | 54.19469 | -0.30990 | 29351 ft | 472 kts | 33° |
| 2026-04-26 09:16 | 54.24690 | -0.24295 | 29385 ft | 469 kts | 33° |
| 2026-04-26 09:17 | 54.29919 | -0.17575 | 29369 ft | 471 kts | 33° |
| 2026-04-26 09:17 | 54.35162 | -0.10811 | 29362 ft | 472 kts | 33° |
| 2026-04-26 09:18 | 54.40374 | -0.04061 | 29358 ft | 473 kts | 33° |
| 2026-04-26 09:18 | 54.45613 | 0.02747 | 29363 ft | 472 kts | 34° |
| 2026-04-26 09:19 | 54.50842 | 0.09564 | 29380 ft | 471 kts | 34° |
| 2026-04-26 09:19 | 54.56057 | 0.16385 | 29357 ft | 470 kts | 34° |
| 2026-04-26 09:20 | 54.61254 | 0.23205 | 29365 ft | 469 kts | 34° |
| 2026-04-26 09:20 | 54.66399 | 0.29977 | 29365 ft | 468 kts | 34° |
| 2026-04-26 09:21 | 54.71568 | 0.36805 | 29357 ft | 467 kts | 34° |
| 2026-04-26 09:21 | 54.76730 | 0.43644 | 29381 ft | 467 kts | 34° |
| 2026-04-26 09:22 | 54.81889 | 0.50504 | 29367 ft | 468 kts | 34° |
| 2026-04-26 09:22 | 54.87019 | 0.57345 | 29362 ft | 468 kts | 35° |
| 2026-04-26 09:23 | 54.92182 | 0.64256 | 29369 ft | 469 kts | 35° |
| 2026-04-26 09:23 | 54.97351 | 0.71196 | 29371 ft | 470 kts | 35° |
| 2026-04-26 09:24 | 55.02521 | 0.78162 | 29384 ft | 470 kts | 35° |
| 2026-04-26 09:24 | 55.07694 | 0.85155 | 29374 ft | 471 kts | 35° |
| 2026-04-26 09:25 | 55.12829 | 0.92119 | 29370 ft | 471 kts | 35° |
| 2026-04-26 09:25 | 55.17995 | 0.99151 | 29373 ft | 470 kts | 35° |
| 2026-04-26 09:26 | 55.23156 | 1.06197 | 29372 ft | 470 kts | 35° |
| 2026-04-26 09:26 | 55.28306 | 1.13254 | 29388 ft | 470 kts | 35° |
| 2026-04-26 09:27 | 55.33417 | 1.20280 | 29374 ft | 469 kts | 35° |
| 2026-04-26 09:27 | 55.38551 | 1.27363 | 29372 ft | 469 kts | 35° |
| 2026-04-26 09:28 | 55.43671 | 1.34449 | 29373 ft | 468 kts | 35° |
| 2026-04-26 09:28 | 55.48784 | 1.41550 | 29374 ft | 468 kts | 35° |
| 2026-04-26 09:29 | 55.53889 | 1.48664 | 29387 ft | 468 kts | 35° |
| 2026-04-26 09:29 | 55.58955 | 1.55748 | 29375 ft | 468 kts | 35° |
| 2026-04-26 09:30 | 55.64054 | 1.62902 | 29375 ft | 468 kts | 35° |
| 2026-04-26 09:30 | 55.69148 | 1.70074 | 29384 ft | 468 kts | 35° |
| 2026-04-26 09:31 | 55.74233 | 1.77257 | 29380 ft | 467 kts | 35° |
| 2026-04-26 09:31 | 55.79280 | 1.84411 | 29392 ft | 467 kts | 35° |
| 2026-04-26 09:32 | 55.84352 | 1.91626 | 29382 ft | 466 kts | 35° |
| 2026-04-26 09:32 | 55.89409 | 1.98844 | 29372 ft | 466 kts | 35° |
| 2026-04-26 09:33 | 55.94457 | 2.06074 | 29376 ft | 465 kts | 35° |
| 2026-04-26 09:33 | 55.99461 | 2.13265 | 29383 ft | 465 kts | 36° |
| 2026-04-26 09:34 | 56.04488 | 2.20515 | 29385 ft | 464 kts | 36° |
| 2026-04-26 09:34 | 56.09513 | 2.27786 | 29383 ft | 464 kts | 36° |
| 2026-04-26 09:35 | 56.14530 | 2.35071 | 29385 ft | 464 kts | 36° |
| 2026-04-26 09:35 | 56.19540 | 2.42371 | 29371 ft | 464 kts | 36° |
| 2026-04-26 09:36 | 56.24510 | 2.49639 | 29377 ft | 463 kts | 36° |
| 2026-04-26 09:36 | 56.29506 | 2.56968 | 29382 ft | 463 kts | 36° |
| 2026-04-26 09:37 | 56.34494 | 2.64313 | 29370 ft | 463 kts | 36° |
| 2026-04-26 09:37 | 56.39478 | 2.71677 | 29371 ft | 463 kts | 36° |
| 2026-04-26 09:38 | 56.44422 | 2.79008 | 29373 ft | 463 kts | 36° |
| 2026-04-26 09:38 | 56.49393 | 2.86404 | 29369 ft | 463 kts | 36° |
| 2026-04-26 09:39 | 56.54362 | 2.93823 | 29392 ft | 463 kts | 36° |
| 2026-04-26 09:39 | 56.59326 | 3.01261 | 29369 ft | 463 kts | 36° |
| 2026-04-26 09:40 | 56.63446 | 3.07455 | 29368 ft | 463 kts | 36° |
| 2026-04-26 09:40 | 56.69198 | 3.16133 | 29365 ft | 462 kts | 36° |
| 2026-04-26 09:41 | 56.74138 | 3.23612 | 29367 ft | 462 kts | 36° |
| 2026-04-26 09:41 | 56.78282 | 3.29729 | 29371 ft | 460 kts | 33° |
| 2026-04-26 09:42 | 56.83441 | 3.36625 | 29380 ft | 460 kts | 32° |
| 2026-04-26 09:42 | 56.89477 | 3.44549 | 29373 ft | 460 kts | 32° |
| 2026-04-26 09:43 | 56.94648 | 3.51437 | 29379 ft | 460 kts | 32° |
| 2026-04-26 09:43 | 56.98934 | 3.57205 | 29374 ft | 460 kts | 32° |
| 2026-04-26 09:44 | 57.04080 | 3.64167 | 29374 ft | 460 kts | 32° |
| 2026-04-26 09:44 | 57.09224 | 3.71152 | 29379 ft | 460 kts | 32° |
| 2026-04-26 09:45 | 57.14365 | 3.78155 | 29371 ft | 460 kts | 33° |
| 2026-04-26 09:45 | 57.19498 | 3.85171 | 29370 ft | 459 kts | 33° |
| 2026-04-26 09:46 | 57.24629 | 3.92208 | 29372 ft | 459 kts | 33° |
| 2026-04-26 09:46 | 57.29721 | 3.99217 | 29372 ft | 459 kts | 33° |
| 2026-04-26 09:47 | 57.34842 | 4.06291 | 29375 ft | 460 kts | 33° |
| 2026-04-26 09:47 | 57.39963 | 4.13390 | 29368 ft | 460 kts | 33° |
| 2026-04-26 09:48 | 57.45079 | 4.20508 | 29377 ft | 459 kts | 33° |
| 2026-04-26 09:48 | 57.50189 | 4.27642 | 29368 ft | 459 kts | 33° |
| 2026-04-26 09:49 | 57.55257 | 4.34744 | 29358 ft | 459 kts | 33° |
| 2026-04-26 09:49 | 57.60354 | 4.41913 | 29366 ft | 459 kts | 33° |
| 2026-04-26 09:50 | 57.65447 | 4.49100 | 29360 ft | 459 kts | 33° |
| 2026-04-26 09:50 | 57.70531 | 4.56302 | 29361 ft | 458 kts | 33° |
| 2026-04-26 09:51 | 57.75611 | 4.63523 | 29358 ft | 458 kts | 33° |
| 2026-04-26 09:51 | 57.80682 | 4.70759 | 29358 ft | 458 kts | 33° |
| 2026-04-26 09:52 | 57.85707 | 4.77954 | 29362 ft | 458 kts | 33° |
| 2026-04-26 09:52 | 57.90752 | 4.85208 | 28404 ft | 451 kts | 33° |
| 2026-04-26 09:52 | 57.93221 | 4.88770 | 27908 ft | 445 kts | 33° |
| 2026-04-26 09:53 | 57.95664 | 4.92298 | 27362 ft | 440 kts | 33° |
| 2026-04-26 09:53 | 57.98082 | 4.95795 | 26838 ft | 436 kts | 33° |
| 2026-04-26 09:53 | 58.00477 | 4.99263 | 26321 ft | 432 kts | 33° |
| 2026-04-26 09:53 | 58.02847 | 5.02701 | 25813 ft | 428 kts | 33° |
| 2026-04-26 09:54 | 58.05199 | 5.06118 | 25308 ft | 425 kts | 34° |
| 2026-04-26 09:54 | 58.07533 | 5.09515 | 24806 ft | 422 kts | 34° |
| 2026-04-26 09:54 | 58.09859 | 5.12906 | 24320 ft | 419 kts | 33° |
| 2026-04-26 09:54 | 58.12292 | 5.15667 | 23727 ft | 410 kts | 16° |
| 2026-04-26 09:55 | 58.15028 | 5.16825 | 23139 ft | 399 kts | 360° |
| 2026-04-26 09:55 | 58.17762 | 5.16566 | 22614 ft | 390 kts | 349° |
| 2026-04-26 09:55 | 58.20438 | 5.15907 | 22091 ft | 386 kts | 348° |
| 2026-04-26 09:55 | 58.23083 | 5.15197 | 21591 ft | 382 kts | 348° |
| 2026-04-26 09:56 | 58.25702 | 5.14487 | 21101 ft | 378 kts | 348° |
| 2026-04-26 09:56 | 58.28296 | 5.13797 | 20613 ft | 375 kts | 348° |
| 2026-04-26 09:56 | 58.30871 | 5.13127 | 20134 ft | 372 kts | 348° |
| 2026-04-26 09:56 | 58.33426 | 5.12473 | 19657 ft | 369 kts | 348° |
| 2026-04-26 09:57 | 58.35963 | 5.11831 | 19182 ft | 366 kts | 348° |
| 2026-04-26 09:57 | 58.38482 | 5.11197 | 18724 ft | 364 kts | 348° |
| 2026-04-26 09:57 | 58.40985 | 5.10569 | 18176 ft | 362 kts | 348° |
| 2026-04-26 09:57 | 58.43436 | 5.09954 | 17668 ft | 359 kts | 348° |
| 2026-04-26 09:58 | 58.45896 | 5.09337 | 17176 ft | 355 kts | 348° |
| 2026-04-26 09:58 | 58.48335 | 5.08725 | 16695 ft | 352 kts | 348° |
| 2026-04-26 09:58 | 58.50687 | 5.08134 | 16240 ft | 349 kts | 348° |
| 2026-04-26 09:58 | 58.53084 | 5.07531 | 15776 ft | 346 kts | 348° |
| 2026-04-26 09:59 | 58.55458 | 5.06932 | 15317 ft | 343 kts | 348° |
| 2026-04-26 09:59 | 58.57816 | 5.06336 | 14861 ft | 341 kts | 348° |
| 2026-04-26 09:59 | 58.60157 | 5.05744 | 14407 ft | 338 kts | 348° |
| 2026-04-26 09:59 | 58.62484 | 5.05154 | 13928 ft | 336 kts | 348° |
| 2026-04-26 10:00 | 58.64797 | 5.04567 | 13428 ft | 334 kts | 348° |
| 2026-04-26 10:00 | 58.67089 | 5.03984 | 12958 ft | 331 kts | 348° |
| 2026-04-26 10:00 | 58.69365 | 5.03406 | 12496 ft | 328 kts | 348° |
| 2026-04-26 10:00 | 58.71617 | 5.02832 | 12041 ft | 325 kts | 349° |
| 2026-04-26 10:01 | 58.73855 | 5.02261 | 11610 ft | 323 kts | 349° |
| 2026-04-26 10:01 | 58.76074 | 5.01695 | 11211 ft | 320 kts | 349° |
| 2026-04-26 10:01 | 58.78241 | 5.01143 | 11082 ft | 309 kts | 349° |
| 2026-04-26 10:01 | 58.80308 | 5.00617 | 10941 ft | 299 kts | 349° |
| 2026-04-26 10:02 | 58.82335 | 5.00099 | 10809 ft | 289 kts | 349° |
| 2026-04-26 10:02 | 58.84301 | 4.99595 | 10688 ft | 280 kts | 349° |
| 2026-04-26 10:02 | 58.86204 | 4.99106 | 10569 ft | 272 kts | 349° |
| 2026-04-26 10:02 | 58.88053 | 4.98630 | 10456 ft | 264 kts | 349° |
| 2026-04-26 10:03 | 58.89846 | 4.98168 | 10336 ft | 257 kts | 349° |
| 2026-04-26 10:03 | 58.91614 | 4.97711 | 10056 ft | 256 kts | 349° |
| 2026-04-26 10:03 | 58.93369 | 4.97256 | 9798 ft | 254 kts | 349° |
| 2026-04-26 10:03 | 58.95115 | 4.96804 | 9526 ft | 253 kts | 349° |
| 2026-04-26 10:04 | 58.96855 | 4.96354 | 9236 ft | 251 kts | 349° |
| 2026-04-26 10:04 | 58.98585 | 4.95906 | 8960 ft | 250 kts | 349° |
| 2026-04-26 10:04 | 59.00303 | 4.95462 | 8710 ft | 249 kts | 349° |
| 2026-04-26 10:04 | 59.02035 | 4.95463 | 8300 ft | 256 kts | 11° |
| 2026-04-26 10:05 | 59.03591 | 4.97168 | 7946 ft | 263 kts | 39° |
| 2026-04-26 10:05 | 59.04675 | 5.00019 | 7650 ft | 270 kts | 58° |
| 2026-04-26 10:05 | 59.05522 | 5.03269 | 7376 ft | 270 kts | 60° |
| 2026-04-26 10:05 | 59.06340 | 5.06543 | 7081 ft | 269 kts | 61° |
| 2026-04-26 10:06 | 59.07157 | 5.09815 | 6808 ft | 268 kts | 61° |
| 2026-04-26 10:06 | 59.07973 | 5.13064 | 6549 ft | 267 kts | 61° |
| 2026-04-26 10:06 | 59.08790 | 5.16298 | 6263 ft | 265 kts | 61° |
| 2026-04-26 10:06 | 59.09603 | 5.19504 | 5983 ft | 264 kts | 61° |
| 2026-04-26 10:07 | 59.10412 | 5.22687 | 5717 ft | 262 kts | 61° |
| 2026-04-26 10:07 | 59.11217 | 5.25849 | 5486 ft | 260 kts | 61° |
| 2026-04-26 10:07 | 59.12004 | 5.28943 | 5225 ft | 258 kts | 61° |
| 2026-04-26 10:07 | 59.12788 | 5.32032 | 4952 ft | 251 kts | 61° |
| 2026-04-26 10:08 | 59.13535 | 5.34985 | 4833 ft | 233 kts | 61° |
| 2026-04-26 10:08 | 59.14231 | 5.37695 | 4699 ft | 214 kts | 57° |
| 2026-04-26 10:08 | 59.15154 | 5.39767 | 4540 ft | 194 kts | 39° |
| 2026-04-26 10:08 | 59.16124 | 5.41537 | 4200 ft | 190 kts | 41° |
| 2026-04-26 10:09 | 59.17053 | 5.43295 | 4010 ft | 183 kts | 41° |
| 2026-04-26 10:09 | 59.17963 | 5.45024 | 3839 ft | 183 kts | 42° |
| 2026-04-26 10:09 | 59.18885 | 5.46773 | 3647 ft | 186 kts | 40° |
| 2026-04-26 10:09 | 59.20001 | 5.47883 | 3401 ft | 180 kts | 2° |
| 2026-04-26 10:10 | 59.21152 | 5.47292 | 3263 ft | 170 kts | 328° |
| 2026-04-26 10:10 | 59.22004 | 5.45785 | 3095 ft | 166 kts | 316° |
| 2026-04-26 10:10 | 59.22827 | 5.44175 | 2955 ft | 170 kts | 316° |
| 2026-04-26 10:10 | 59.23663 | 5.42520 | 2797 ft | 172 kts | 316° |
| 2026-04-26 10:11 | 59.24494 | 5.40868 | 2601 ft | 168 kts | 316° |
| 2026-04-26 10:11 | 59.25308 | 5.39252 | 2393 ft | 165 kts | 315° |
| 2026-04-26 10:11 | 59.26102 | 5.37675 | 2208 ft | 161 kts | 315° |
| 2026-04-26 10:11 | 59.26889 | 5.36112 | 1995 ft | 162 kts | 315° |
| 2026-04-26 10:12 | 59.27679 | 5.34538 | 1803 ft | 161 kts | 315° |
| 2026-04-26 10:12 | 59.28444 | 5.33010 | 1569 ft | 153 kts | 315° |
| 2026-04-26 10:12 | 59.29178 | 5.31549 | 1411 ft | 148 kts | 315° |
| 2026-04-26 10:12 | 59.29886 | 5.30135 | 1188 ft | 146 kts | 315° |
| 2026-04-26 10:13 | 59.30587 | 5.28744 | 1021 ft | 142 kts | 315° |
| 2026-04-26 10:13 | 59.31287 | 5.27355 | 826 ft | 145 kts | 315° |
| 2026-04-26 10:13 | 59.31983 | 5.25941 | 633 ft | 143 kts | 316° |
| 2026-04-26 10:13 | 59.32671 | 5.24567 | 421 ft | 140 kts | 316° |
| 2026-04-26 10:14 | 59.33345 | 5.23212 | 243 ft | 138 kts | 316° |
| 2026-04-26 10:14 | 59.34012 | 5.21866 | 96 ft | 134 kts | 316° |
| 2026-04-26 10:14 | 59.34563 | 5.20766 | 79 ft | 83 kts | 314° |
| 2026-04-26 10:14 | 59.34806 | 5.20300 | 69 ft | 20 kts | 331° |
| 2026-04-26 10:15 | 59.34828 | 5.20225 | 71 ft | 6 kts | 201° |
| 2026-04-26 10:15 | 59.34785 | 5.20300 | 73 ft | 16 kts | 130° |
| 2026-04-26 10:15 | 59.34671 | 5.20550 | 80 ft | 33 kts | 136° |
| 2026-04-26 10:15 | 59.34489 | 5.20914 | 84 ft | 38 kts | 134° |
| 2026-04-26 10:16 | 59.34340 | 5.21218 | 85 ft | 10 kts | 123° |
| 2026-04-26 10:16 | 59.34359 | 5.21329 | 87 ft | 9 kts | 45° |
| 2026-04-26 10:16 | 59.34399 | 5.21406 | 88 ft | 3 kts | 44° |
| 2026-04-26 10:16 | 59.34401 | 5.21410 | 88 ft | 0 kts | 44° |
| 2026-04-26 10:18 | 59.34402 | 5.21411 | 88 ft | 0 kts | 44° |
| 2026-04-26 10:18 | 59.34413 | 5.21441 | 86 ft | 5 kts | 69° |
| 2026-04-26 10:19 | 59.34395 | 5.21509 | 88 ft | 5 kts | 132° |
| 2026-04-26 10:19 | 59.34394 | 5.21555 | 86 ft | 3 kts | 60° |
| 2026-04-26 10:19 | 59.34409 | 5.21585 | 89 ft | 3 kts | 45° |
| 2026-04-26 10:19 | 59.34419 | 5.21606 | 86 ft | 2 kts | 44° |
| 2026-04-26 10:20 | 59.34421 | 5.21610 | 86 ft | 0 kts | 44° |